Time;durP1;ratioP1;P1;durP2;ratioP2;P2;SDS_P1;SDS_P2;PMS_P1;PMS_P2;Temp;Humidity;BMP_temperature;BMP_pressure;BME280_temperature;BME280_humidity;BME280_pressure;Samples;Min_cycle;Max_cycle;Signal;HPM_P1;HPM_P2
2023/11/18 00:01:51;;;;;;;7.93;7.13;;;21.50;61.20;;;;;;5071006;28;20833;-66
2023/11/18 00:04:18;;;;;;;8.63;7.83;;;21.40;61.10;;;;;;5071099;28;20467;-66
2023/11/18 00:06:45;;;;;;;8.67;7.87;;;21.40;61.10;;;;;;5070862;28;20475;-66
2023/11/18 00:09:14;;;;;;;7.43;6.73;;;21.40;61.20;;;;;;5070897;28;20474;-66
2023/11/18 00:11:42;;;;;;;8.60;7.80;;;21.40;61.20;;;;;;5070969;28;20553;-67
2023/11/18 00:14:10;;;;;;;8.17;7.47;;;21.40;61.30;;;;;;5070872;28;20541;-67
2023/11/18 00:16:37;;;;;;;7.40;6.87;;;21.40;61.30;;;;;;5067051;28;20990;-66
2023/11/18 00:19:05;;;;;;;8.03;7.33;;;21.40;61.30;;;;;;5067103;28;20497;-67
2023/11/18 00:21:32;;;;;;;7.73;7.10;;;21.40;61.30;;;;;;5070763;28;20552;-66
2023/11/18 00:23:59;;;;;;;6.83;6.30;;;21.40;61.40;;;;;;5070936;28;20474;-66
2023/11/18 00:26:26;;;;;;;7.60;7.20;;;21.40;61.40;;;;;;5070786;28;20505;-66
2023/11/18 00:28:53;;;;;;;8.87;8.10;;;21.40;61.40;;;;;;5070752;28;20474;-66
2023/11/18 00:31:20;;;;;;;8.13;7.47;;;21.40;61.40;;;;;;5070709;28;20501;-67
2023/11/18 00:33:47;;;;;;;7.57;7.00;;;21.40;61.40;;;;;;5070879;28;20486;-66
2023/11/18 00:36:15;;;;;;;7.80;7.23;;;21.40;61.50;;;;;;5069647;28;20475;-67
2023/11/18 00:38:42;;;;;;;7.33;6.83;;;21.40;61.40;;;;;;5064698;28;20471;-67
2023/11/18 00:41:09;;;;;;;7.30;6.70;;;21.40;61.30;;;;;;5074179;28;20499;-69
2023/11/18 00:43:36;;;;;;;7.90;7.20;;;21.40;61.40;;;;;;5074414;28;20471;-67
2023/11/18 00:46:04;;;;;;;7.33;6.77;;;21.40;61.40;;;;;;5065814;28;20487;-67
2023/11/18 00:48:31;;;;;;;7.63;7.03;;;21.40;61.40;;;;;;5074102;28;20443;-67
2023/11/18 00:50:58;;;;;;;7.63;7.00;;;21.40;61.50;;;;;;5073922;28;20497;-67
2023/11/18 00:53:27;;;;;;;7.47;6.77;;;21.40;61.40;;;;;;5071676;28;20509;-66
2023/11/18 00:55:53;;;;;;;7.20;6.70;;;21.40;61.50;;;;;;5068392;28;20517;-66
2023/11/18 00:58:21;;;;;;;7.70;7.00;;;21.40;61.40;;;;;;5073880;28;20534;-66
2023/11/18 01:00:48;;;;;;;7.53;6.93;;;21.40;61.50;;;;;;5073994;28;20465;-66
2023/11/18 01:03:14;;;;;;;6.37;5.97;;;21.30;62.20;;;;;;5073631;28;20447;-66
2023/11/18 01:05:41;;;;;;;7.30;6.80;;;21.30;61.30;;;;;;5073924;28;20596;-66
2023/11/18 01:08:08;;;;;;;6.87;6.47;;;21.30;61.40;;;;;;5073851;28;20450;-67
2023/11/18 01:10:36;;;;;;;7.93;7.33;;;21.30;61.40;;;;;;5065672;28;20467;-66
2023/11/18 01:13:03;;;;;;;7.53;6.97;;;21.30;61.40;;;;;;5073637;28;20483;-66
2023/11/18 01:15:32;;;;;;;6.93;6.33;;;21.30;61.50;;;;;;5073506;28;20478;-66
2023/11/18 01:17:59;;;;;;;6.57;6.17;;;21.30;61.50;;;;;;5073798;28;20443;-66
2023/11/18 01:20:26;;;;;;;7.97;7.20;;;21.30;61.50;;;;;;5073636;28;20499;-66
2023/11/18 01:22:53;;;;;;;7.60;7.00;;;21.30;61.50;;;;;;5073123;28;20451;-66
2023/11/18 01:25:20;;;;;;;7.33;6.73;;;21.30;61.50;;;;;;5068511;28;20810;-67
2023/11/18 01:27:48;;;;;;;6.57;6.00;;;21.20;61.40;;;;;;5073616;28;20440;-67
2023/11/18 01:30:15;;;;;;;6.57;6.00;;;21.20;61.40;;;;;;5073497;28;20453;-66
2023/11/18 01:32:42;;;;;;;6.27;5.87;;;21.20;61.40;;;;;;5073160;28;20538;-66
2023/11/18 01:35:12;;;;;;;6.63;6.13;;;21.20;61.40;;;;;;5064638;28;20915;-67
2023/11/18 01:37:39;;;;;;;7.23;6.63;;;21.20;61.50;;;;;;5065631;28;20876;-67
2023/11/18 01:40:08;;;;;;;6.83;6.27;;;21.20;61.40;;;;;;5073490;28;20477;-66
2023/11/18 01:42:35;;;;;;;6.93;6.40;;;21.20;61.50;;;;;;5072975;28;20444;-66
2023/11/18 01:45:05;;;;;;;6.27;5.77;;;21.20;61.50;;;;;;5068406;28;20436;-67
2023/11/18 01:47:33;;;;;;;7.03;6.53;;;21.20;61.50;;;;;;5073287;28;20435;-66
2023/11/18 01:50:01;;;;;;;9.40;8.80;;;21.20;61.50;;;;;;5073085;28;20926;-66
2023/11/18 01:52:30;;;;;;;5.37;5.07;;;21.20;61.50;;;;;;5072870;28;20447;-67
2023/11/18 01:54:57;;;;;;;6.00;5.60;;;21.20;61.50;;;;;;5072785;28;20479;-64
2023/11/18 01:57:26;;;;;;;6.30;5.90;;;21.20;61.50;;;;;;5072912;28;20471;-67
2023/11/18 01:59:54;;;;;;;6.27;5.87;;;21.10;61.50;;;;;;5072870;28;20907;-67
2023/11/18 02:02:22;;;;;;;6.40;6.10;;;21.10;61.50;;;;;;5072289;28;20520;-66
2023/11/18 02:04:50;;;;;;;6.87;6.33;;;21.10;61.50;;;;;;5072867;28;20474;-66
2023/11/18 02:07:17;;;;;;;7.17;6.60;;;21.10;61.60;;;;;;5072839;28;20450;-66
2023/11/18 02:09:45;;;;;;;6.67;6.10;;;21.10;61.50;;;;;;5072765;28;20466;-66
2023/11/18 02:12:22;;;;;;;6.13;5.60;;;21.10;61.70;;;;;;5072190;28;20561;-66
2023/11/18 02:14:50;;;;;;;5.77;5.27;;;21.10;61.80;;;;;;5065972;28;20528;-66
2023/11/18 02:17:22;;;;;;;5.27;5.07;;;21.10;61.80;;;;;;5072590;28;20471;-66
2023/11/18 02:19:53;;;;;;;7.60;6.50;;;21.10;61.70;;;;;;5072514;28;20450;-66
2023/11/18 02:22:21;;;;;;;7.07;6.57;;;21.10;61.80;;;;;;5072468;28;20970;-67
2023/11/18 02:24:48;;;;;;;6.73;6.23;;;21.10;61.80;;;;;;5072380;28;20478;-66
2023/11/18 02:27:20;;;;;;;6.40;5.90;;;21.10;61.80;;;;;;5072286;28;20866;-67
2023/11/18 02:29:48;;;;;;;6.00;5.63;;;21.20;61.90;;;;;;5072401;28;20479;-66
2023/11/18 02:32:23;;;;;;;6.33;5.93;;;21.10;61.80;;;;;;5072188;28;20499;-67
2023/11/18 02:34:55;;;;;;;5.97;5.57;;;21.20;61.90;;;;;;5071857;28;20503;-67
2023/11/18 02:37:23;;;;;;;6.70;6.20;;;21.10;61.80;;;;;;5063770;28;20439;-66
2023/11/18 02:39:54;;;;;;;5.87;5.57;;;21.10;61.80;;;;;;5072062;28;20549;-68
2023/11/18 02:42:23;;;;;;;5.63;5.23;;;21.10;61.80;;;;;;5072011;28;20807;-66
2023/11/18 02:44:58;;;;;;;5.93;5.63;;;21.10;61.80;;;;;;5071646;28;21010;-67
2023/11/18 02:47:26;;;;;;;6.57;6.13;;;21.20;61.90;;;;;;5071850;28;20442;-67
2023/11/18 02:49:56;;;;;;;5.97;5.63;;;21.10;61.70;;;;;;5071852;28;20973;-66
2023/11/18 02:52:23;;;;;;;5.83;5.40;;;21.20;61.80;;;;;;5071642;28;20463;-66
2023/11/18 02:54:50;;;;;;;5.93;5.53;;;21.10;61.90;;;;;;5063225;28;20993;-66
2023/11/18 02:57:16;;;;;;;5.27;4.97;;;21.10;61.70;;;;;;5071675;28;20482;-66
2023/11/18 02:59:46;;;;;;;6.50;6.00;;;21.10;62.10;;;;;;5071958;28;20504;-66
2023/11/18 03:02:14;;;;;;;6.73;6.33;;;21.10;62.10;;;;;;5071114;28;20493;-66
2023/11/18 03:04:43;;;;;;;5.03;4.80;;;21.10;61.80;;;;;;5071708;28;20443;-66
2023/11/18 03:07:11;;;;;;;5.90;5.40;;;21.10;62.10;;;;;;5071902;28;20447;-67
2023/11/18 03:09:39;;;;;;;5.57;5.17;;;21.10;62.00;;;;;;5071676;28;20810;-66
2023/11/18 03:12:07;;;;;;;5.43;5.03;;;21.10;61.90;;;;;;5071376;28;20474;-66
2023/11/18 03:14:34;;;;;;;5.43;5.00;;;21.10;61.80;;;;;;5071446;28;20479;-66
2023/11/18 03:17:06;;;;;;;5.33;4.93;;;21.10;61.80;;;;;;5071781;28;20435;-67
2023/11/18 03:19:34;;;;;;;5.80;5.40;;;21.00;61.70;;;;;;5071666;28;20440;-66
2023/11/18 03:22:01;;;;;;;5.00;4.60;;;21.10;61.80;;;;;;5071388;28;20959;-66
2023/11/18 03:24:29;;;;;;;6.03;5.67;;;21.00;62.40;;;;;;5071229;28;20479;-65
2023/11/18 03:26:55;;;;;;;5.87;5.47;;;21.00;61.70;;;;;;5071628;28;20438;-66
2023/11/18 03:29:23;;;;;;;5.00;4.70;;;21.00;61.70;;;;;;5071346;28;20474;-66
2023/11/18 03:31:50;;;;;;;6.07;5.63;;;21.00;61.60;;;;;;5071428;28;20469;-66
2023/11/18 03:34:19;;;;;;;6.03;5.63;;;21.00;61.60;;;;;;5071457;28;21156;-66
2023/11/18 03:36:47;;;;;;;4.90;4.60;;;21.00;61.60;;;;;;5070729;28;20560;-66
2023/11/18 03:39:15;;;;;;;6.20;5.73;;;21.00;61.60;;;;;;5071428;28;20476;-66
2023/11/18 03:41:44;;;;;;;6.17;5.67;;;21.00;61.50;;;;;;5071287;28;20466;-67
2023/11/18 03:44:11;;;;;;;6.50;6.03;;;21.00;61.50;;;;;;5071477;28;20440;-66
2023/11/18 03:46:38;;;;;;;5.17;4.87;;;21.00;61.50;;;;;;5071317;28;20467;-66
2023/11/18 03:49:05;;;;;;;5.33;5.03;;;21.00;61.60;;;;;;5070993;28;20478;-66
2023/11/18 03:51:33;;;;;;;6.70;6.20;;;21.00;61.60;;;;;;5094319;22;20525;-68
2023/11/18 03:54:00;;;;;;;6.23;5.73;;;20.90;61.50;;;;;;5083417;28;20470;-68
2023/11/18 03:56:28;;;;;;;4.80;4.60;;;21.00;61.70;;;;;;5081626;28;20501;-68
2023/11/18 03:58:55;;;;;;;6.00;5.60;;;20.90;61.50;;;;;;5078852;28;20447;-67
2023/11/18 04:01:22;;;;;;;5.50;5.07;;;20.90;61.60;;;;;;5073362;28;20492;-68
2023/11/18 04:03:49;;;;;;;6.37;5.90;;;20.90;61.90;;;;;;5059370;28;20432;-68
2023/11/18 04:06:17;;;;;;;4.53;4.33;;;20.90;61.80;;;;;;5059408;28;20566;-68
2023/11/18 04:08:46;;;;;;;4.90;4.70;;;21.00;61.90;;;;;;5051656;28;20457;-69
2023/11/18 04:11:14;;;;;;;4.67;4.40;;;20.90;61.80;;;;;;5062934;28;20463;-68
2023/11/18 04:13:41;;;;;;;5.27;4.97;;;21.00;61.90;;;;;;5061651;28;20515;-68
2023/11/18 04:16:13;;;;;;;5.63;5.33;;;21.00;62.00;;;;;;5063370;28;20515;-68
2023/11/18 04:18:40;;;;;;;4.70;4.43;;;21.00;62.00;;;;;;5065987;28;20450;-68
2023/11/18 04:21:08;;;;;;;5.27;4.87;;;20.90;62.20;;;;;;5066631;28;20462;-68
2023/11/18 04:23:35;;;;;;;5.60;5.20;;;20.90;62.10;;;;;;5063842;28;20937;-68
2023/11/18 04:26:04;;;;;;;5.27;4.90;;;20.90;62.20;;;;;;5063205;28;20447;-68
2023/11/18 04:28:31;;;;;;;4.67;4.37;;;20.90;62.10;;;;;;5065017;28;20437;-68
2023/11/18 04:30:58;;;;;;;4.93;4.63;;;21.00;62.20;;;;;;5054825;28;20500;-67
2023/11/18 04:33:26;;;;;;;4.53;4.27;;;20.90;62.00;;;;;;5064218;28;20863;-68
2023/11/18 04:35:53;;;;;;;4.60;4.40;;;21.00;62.10;;;;;;5062916;28;20912;-68
2023/11/18 04:38:21;;;;;;;4.83;4.53;;;21.00;62.10;;;;;;5063122;28;20436;-68
2023/11/18 04:40:48;;;;;;;4.90;4.60;;;21.00;62.00;;;;;;5066326;28;20446;-68
2023/11/18 04:43:16;;;;;;;4.80;4.50;;;21.00;62.00;;;;;;5065877;28;20470;-68
2023/11/18 04:45:43;;;;;;;4.43;4.23;;;21.00;62.00;;;;;;5054819;28;20463;-68
2023/11/18 04:48:12;;;;;;;4.80;4.57;;;21.00;62.00;;;;;;5062843;28;20471;-68
2023/11/18 04:50:40;;;;;;;4.73;4.47;;;21.00;61.90;;;;;;5061832;28;20464;-68
2023/11/18 04:53:08;;;;;;;4.60;4.30;;;20.90;61.80;;;;;;5062533;28;20460;-68
2023/11/18 04:55:34;;;;;;;5.03;4.67;;;21.00;61.90;;;;;;5064721;28;20476;-68
2023/11/18 04:58:02;;;;;;;4.60;4.30;;;20.90;61.80;;;;;;5065879;28;20467;-68
2023/11/18 05:00:31;;;;;;;4.20;4.00;;;21.00;61.90;;;;;;5063928;28;20455;-68
2023/11/18 05:02:59;;;;;;;4.40;4.20;;;20.90;61.70;;;;;;5062643;28;20456;-68
2023/11/18 05:05:26;;;;;;;4.20;4.00;;;20.90;61.80;;;;;;5063364;28;20468;-68
2023/11/18 05:07:53;;;;;;;8.00;4.20;;;21.00;62.00;;;;;;5065773;28;20811;-68
2023/11/18 05:10:20;;;;;;;4.97;4.70;;;20.90;62.00;;;;;;5065109;28;20840;-68
2023/11/18 05:12:55;;;;;;;5.10;4.80;;;20.90;62.10;;;;;;5062315;28;20904;-68
2023/11/18 05:15:24;;;;;;;4.80;4.50;;;20.90;62.00;;;;;;5062496;28;20997;-67
2023/11/18 05:17:53;;;;;;;4.70;4.50;;;20.90;61.80;;;;;;5065536;28;20463;-68
2023/11/18 05:20:20;;;;;;;4.37;4.17;;;20.90;61.80;;;;;;5064942;28;20475;-68
2023/11/18 05:22:47;;;;;;;4.70;4.50;;;20.90;61.80;;;;;;5062132;28;20529;-67
2023/11/18 05:25:14;;;;;;;4.83;4.53;;;20.90;61.70;;;;;;5061797;28;20866;-68
2023/11/18 05:27:41;;;;;;;4.20;4.00;;;20.90;61.70;;;;;;5064923;28;20482;-68
2023/11/18 05:30:09;;;;;;;4.73;4.53;;;20.90;61.70;;;;;;5065511;28;20474;-68
2023/11/18 05:32:37;;;;;;;4.87;4.53;;;20.90;61.70;;;;;;5062614;28;20495;-68
2023/11/18 05:35:06;;;;;;;5.30;5.10;;;20.90;61.70;;;;;;5061640;28;20448;-68
2023/11/18 05:37:35;;;;;;;4.50;4.30;;;20.80;61.50;;;;;;5063545;28;20444;-68
2023/11/18 05:40:06;;;;;;;4.77;4.47;;;20.90;61.60;;;;;;5065376;28;20538;-67
2023/11/18 05:42:35;;;;;;;4.40;4.20;;;20.80;61.50;;;;;;5063336;28;20478;-68
2023/11/18 05:45:02;;;;;;;4.73;4.33;;;20.80;61.40;;;;;;5061203;28;20452;-68
2023/11/18 05:47:29;;;;;;;4.30;4.10;;;20.90;61.60;;;;;;5062828;28;20441;-68
2023/11/18 05:49:56;;;;;;;4.17;3.93;;;20.80;61.60;;;;;;5065240;28;20475;-68
2023/11/18 05:52:24;;;;;;;5.63;5.30;;;20.80;61.80;;;;;;5057584;28;20507;-68
2023/11/18 05:54:51;;;;;;;4.70;4.50;;;20.80;61.80;;;;;;5064733;28;20479;-68
2023/11/18 05:57:19;;;;;;;5.10;4.80;;;20.80;62.60;;;;;;5064968;28;20511;-67
2023/11/18 05:59:47;;;;;;;4.40;4.20;;;20.80;62.00;;;;;;5061162;28;20480;-68
2023/11/18 06:02:18;;;;;;;5.10;4.80;;;20.90;62.10;;;;;;5060736;28;20909;-68
2023/11/18 06:04:45;;;;;;;5.20;4.90;;;20.90;62.00;;;;;;5064397;28;20497;-68
2023/11/18 06:07:13;;;;;;;4.40;4.20;;;20.90;62.10;;;;;;5064702;28;20463;-68
2023/11/18 06:09:42;;;;;;;4.57;4.27;;;20.90;62.00;;;;;;5061948;28;20984;-68
2023/11/18 06:12:10;;;;;;;4.53;4.40;;;20.80;61.90;;;;;;5061107;28;20466;-68
2023/11/18 06:14:37;;;;;;;4.93;4.73;;;20.80;62.80;;;;;;5062683;28;21034;-68
2023/11/18 06:17:07;;;;;;;4.70;4.40;;;20.90;62.10;;;;;;5062387;28;20503;-68
2023/11/18 06:19:34;;;;;;;4.17;3.97;;;20.80;62.00;;;;;;5062453;28;20523;-68
2023/11/18 06:22:00;;;;;;;4.10;3.90;;;20.90;62.20;;;;;;5064076;28;20479;-68
2023/11/18 06:24:28;;;;;;;4.23;4.03;;;20.90;62.10;;;;;;5063264;28;20467;-68
2023/11/18 06:26:56;;;;;;;3.77;3.67;;;20.90;62.10;;;;;;5053979;28;21165;-68
2023/11/18 06:29:23;;;;;;;3.53;3.33;;;20.90;62.00;;;;;;5063051;28;20478;-68
2023/11/18 06:31:50;;;;;;;4.23;4.03;;;20.80;61.80;;;;;;5060497;28;21021;-68
2023/11/18 06:34:18;;;;;;;4.07;3.87;;;20.90;61.80;;;;;;5060638;28;20940;-68
2023/11/18 06:36:45;;;;;;;4.33;4.13;;;20.90;61.90;;;;;;5062770;28;20502;-69
2023/11/18 06:39:13;;;;;;;4.57;4.37;;;20.80;61.60;;;;;;5063533;28;20447;-68
2023/11/18 06:41:48;;;;;;;4.20;4.00;;;20.80;61.60;;;;;;5061384;28;20546;-68
2023/11/18 06:44:18;;;;;;;3.90;3.80;;;20.80;61.60;;;;;;5060438;28;20440;-68
2023/11/18 06:46:45;;;;;;;5.30;5.00;;;20.90;61.70;;;;;;5063277;28;20467;-68
2023/11/18 06:49:15;;;;;;;4.10;4.00;;;20.80;61.70;;;;;;5063820;28;20520;-68
2023/11/18 06:51:42;;;;;;;4.20;4.00;;;20.80;61.70;;;;;;5060620;28;20483;-68
2023/11/18 06:54:09;;;;;;;4.17;3.97;;;20.80;61.80;;;;;;5060220;28;20490;-68
2023/11/18 06:56:38;;;;;;;4.80;4.50;;;20.90;62.00;;;;;;5061919;28;20479;-68
2023/11/18 06:59:05;;;;;;;3.83;3.63;;;20.90;62.00;;;;;;5063190;28;20451;-68
2023/11/18 07:01:33;;;;;;;3.63;3.53;;;20.90;62.20;;;;;;5062303;28;20455;-68
2023/11/18 07:04:00;;;;;;;4.67;4.37;;;20.80;62.00;;;;;;5060011;28;20472;-68
2023/11/18 07:06:27;;;;;;;4.00;3.80;;;20.90;62.20;;;;;;5060514;28;20465;-68
2023/11/18 07:08:56;;;;;;;3.80;3.70;;;20.80;62.20;;;;;;5058115;28;20448;-68
2023/11/18 07:11:23;;;;;;;4.43;4.23;;;20.80;62.20;;;;;;5059571;28;20512;-68
2023/11/18 07:13:56;;;;;;;4.67;4.33;;;20.80;62.10;;;;;;5051757;28;20472;-69
2023/11/18 07:16:23;;;;;;;4.17;3.97;;;20.80;62.00;;;;;;5059840;28;20472;-69
2023/11/18 07:18:51;;;;;;;4.70;4.30;;;20.80;62.20;;;;;;5051977;28;20448;-68
2023/11/18 07:21:18;;;;;;;3.70;3.60;;;20.80;62.80;;;;;;5065281;28;20495;-68
2023/11/18 07:23:45;;;;;;;3.83;3.73;;;20.80;62.20;;;;;;5060194;28;20471;-68
2023/11/18 07:26:13;;;;;;;4.50;4.30;;;20.80;62.20;;;;;;5060030;28;20451;-68
2023/11/18 07:28:40;;;;;;;3.90;3.80;;;20.80;62.20;;;;;;5061852;28;20447;-68
2023/11/18 07:31:09;;;;;;;4.57;4.20;;;20.80;62.20;;;;;;5063058;28;20489;-67
2023/11/18 07:33:35;;;;;;;4.37;4.17;;;20.80;62.10;;;;;;5053981;28;20539;-68
2023/11/18 07:36:06;;;;;;;4.23;4.03;;;20.80;62.10;;;;;;5063194;28;20511;-68
2023/11/18 07:38:34;;;;;;;4.10;4.00;;;20.80;62.10;;;;;;5061793;28;20487;-68
2023/11/18 07:41:02;;;;;;;4.83;4.37;;;20.80;62.10;;;;;;5059561;28;20468;-67
2023/11/18 07:43:30;;;;;;;4.00;3.80;;;20.80;62.00;;;;;;5060153;28;20444;-68
2023/11/18 07:45:57;;;;;;;4.60;4.30;;;20.80;62.00;;;;;;5062948;28;20454;-68
2023/11/18 07:48:24;;;;;;;4.60;4.40;;;20.70;62.10;;;;;;5066768;28;20463;-67
2023/11/18 07:50:50;;;;;;;4.60;4.30;;;20.80;62.50;;;;;;5055393;28;20464;-67
2023/11/18 07:53:19;;;;;;;4.17;4.03;;;20.80;62.70;;;;;;5063616;28;20558;-67
2023/11/18 07:55:47;;;;;;;4.73;4.33;;;20.80;63.60;;;;;;5066425;28;20493;-68
2023/11/18 07:58:23;;;;;;;4.87;4.57;;;20.90;64.80;;;;;;5066472;28;20498;-69
2023/11/18 08:00:52;;;;;;;5.33;4.23;;;21.00;64.90;;;;;;5063594;28;20501;-71
2023/11/18 08:03:20;;;;;;;5.03;4.70;;;21.00;64.40;;;;;;5063537;28;20510;-69
2023/11/18 08:05:50;;;;;;;5.47;5.07;;;21.10;64.90;;;;;;5065966;28;20447;-70
2023/11/18 08:08:20;;;;;;;5.23;4.90;;;21.20;65.20;;;;;;5066888;28;20822;-73
2023/11/18 08:10:48;;;;;;;5.10;4.90;;;21.20;64.50;;;;;;5064022;28;20498;-75
2023/11/18 08:13:16;;;;;;;4.77;4.57;;;21.30;64.90;;;;;;5063376;28;20525;-76
2023/11/18 08:15:45;;;;;;;5.63;5.33;;;21.30;65.10;;;;;;5065473;28;20448;-74
2023/11/18 08:18:13;;;;;;;5.70;5.20;;;21.30;65.10;;;;;;5066694;28;20986;-73
2023/11/18 08:20:41;;;;;;;5.10;4.70;;;21.30;65.00;;;;;;5065632;28;20443;-74
2023/11/18 08:23:12;;;;;;;5.80;5.30;;;21.40;64.90;;;;;;5063135;28;20499;-73
2023/11/18 08:25:43;;;;;;;4.70;4.50;;;21.30;64.60;;;;;;5064354;28;20451;-74
2023/11/18 08:28:13;;;;;;;5.80;5.50;;;21.40;64.60;;;;;;5059799;28;20451;-73
2023/11/18 08:30:40;;;;;;;5.10;4.80;;;21.40;64.50;;;;;;5064682;28;20861;-74
2023/11/18 08:33:09;;;;;;;6.00;5.50;;;21.40;64.20;;;;;;5065929;28;20447;-74
2023/11/18 08:35:38;;;;;;;6.00;5.37;;;21.40;64.00;;;;;;5064702;28;20448;-73
2023/11/18 08:38:07;;;;;;;5.57;5.27;;;21.40;63.90;;;;;;5062627;28;20484;-73
2023/11/18 08:40:34;;;;;;;5.60;5.10;;;21.50;63.80;;;;;;5069023;28;20525;-74
2023/11/18 08:43:07;;;;;;;5.47;5.07;;;21.50;63.70;;;;;;5062622;28;20545;-74
2023/11/18 08:45:37;;;;;;;5.23;4.87;;;21.50;63.60;;;;;;5062473;28;20444;-73
2023/11/18 08:48:06;;;;;;;5.30;4.90;;;21.50;63.40;;;;;;5064752;28;20443;-74
2023/11/18 08:50:34;;;;;;;4.97;4.60;;;21.50;63.60;;;;;;5065086;28;20516;-74
2023/11/18 08:53:04;;;;;;;10.53;5.20;;;21.50;63.60;;;;;;5062175;28;20905;-73
2023/11/18 08:55:41;;;;;;;13.50;7.43;;;21.50;63.50;;;;;;5062840;28;20993;-74
2023/11/18 08:58:18;;;;;;;19.50;13.37;;;21.50;63.50;;;;;;5065203;28;20510;-73
2023/11/18 09:00:52;;;;;;;49.63;17.47;;;21.50;63.90;;;;;;5063502;28;20602;-75
2023/11/18 09:03:28;;;;;;;50.03;22.03;;;21.50;63.90;;;;;;5062725;28;20809;-75
2023/11/18 09:05:59;;;;;;;51.83;23.30;;;21.50;64.30;;;;;;5066110;28;20467;-74
2023/11/18 09:08:27;;;;;;;68.53;25.93;;;21.50;64.70;;;;;;5065759;28;20427;-75
2023/11/18 09:10:54;;;;;;;77.10;27.97;;;21.60;65.40;;;;;;5054176;28;20851;-75
2023/11/18 09:13:28;;;;;;;57.00;25.57;;;21.60;65.90;;;;;;5062993;28;20454;-73
2023/11/18 09:15:56;;;;;;;76.33;28.67;;;21.60;66.30;;;;;;5061350;28;20943;-73
2023/11/18 09:18:24;;;;;;;59.67;25.03;;;21.60;66.60;;;;;;5062135;28;20476;-73
2023/11/18 09:20:52;;;;;;;61.40;25.57;;;21.60;67.00;;;;;;5065497;28;20443;-74
2023/11/18 09:23:19;;;;;;;63.80;23.83;;;21.60;67.50;;;;;;5065127;28;20453;-74
2023/11/18 09:25:47;;;;;;;57.50;23.23;;;21.60;67.70;;;;;;5063014;28;20814;-73
2023/11/18 09:28:15;;;;;;;56.70;25.13;;;21.60;68.00;;;;;;5061898;28;20628;-74
2023/11/18 09:30:50;;;;;;;62.83;22.87;;;21.60;68.40;;;;;;5063665;28;20468;-75
2023/11/18 09:33:25;;;;;;;50.97;24.13;;;21.60;68.30;;;;;;5065319;28;20435;-74
2023/11/18 09:35:55;;;;;;;49.70;25.23;;;21.60;68.50;;;;;;5061641;28;20477;-75
2023/11/18 09:38:23;;;;;;;52.30;25.37;;;21.60;68.70;;;;;;5061729;28;20468;-75
2023/11/18 09:40:53;;;;;;;52.77;23.03;;;21.60;68.80;;;;;;5064384;28;20446;-74
2023/11/18 09:43:21;;;;;;;47.57;21.13;;;21.60;68.40;;;;;;5065040;28;20475;-75
2023/11/18 09:45:55;;;;;;;49.63;24.10;;;21.60;68.40;;;;;;5063086;28;20448;-75
2023/11/18 09:48:25;;;;;;;34.57;20.10;;;21.60;68.40;;;;;;5064927;28;20853;-74
2023/11/18 09:50:54;;;;;;;43.30;20.30;;;21.60;68.40;;;;;;5061688;28;20440;-75
2023/11/18 09:53:25;;;;;;;34.00;18.23;;;21.60;68.40;;;;;;5070658;22;20489;-68
2023/11/18 09:56:01;;;;;;;33.63;17.40;;;21.70;68.40;;;;;;5044471;28;20444;-68
2023/11/18 09:58:40;;;;;;;46.37;17.43;;;21.70;68.30;;;;;;5037817;28;20570;-68
2023/11/18 10:01:13;;;;;;;30.60;17.40;;;21.60;68.20;;;;;;5041294;28;20441;-67
2023/11/18 10:03:42;;;;;;;40.30;18.30;;;21.70;68.20;;;;;;5022812;28;20774;-67
2023/11/18 10:06:11;;;;;;;32.33;19.40;;;21.70;68.10;;;;;;5025142;28;20473;-67
2023/11/18 10:08:38;;;;;;;26.17;16.60;;;21.70;67.90;;;;;;5023371;28;20500;-68
2023/11/18 10:11:09;;;;;;;29.47;18.20;;;21.70;68.40;;;;;;5021373;28;20489;-68
2023/11/18 10:13:40;;;;;;;31.63;17.27;;;21.70;68.60;;;;;;5021919;28;20462;-68
2023/11/18 10:16:09;;;;;;;26.57;16.20;;;21.70;68.40;;;;;;5024621;28;20437;-67
2023/11/18 10:18:36;;;;;;;29.67;14.77;;;21.70;68.30;;;;;;5016069;28;20556;-68
2023/11/18 10:21:07;;;;;;;26.23;16.03;;;21.70;68.30;;;;;;5024387;28;20441;-68
2023/11/18 10:23:37;;;;;;;22.77;14.80;;;21.70;68.00;;;;;;5023845;28;20547;-69
2023/11/18 10:26:05;;;;;;;23.50;14.53;;;21.70;68.00;;;;;;5025538;28;20808;-66
2023/11/18 10:28:33;;;;;;;20.73;13.87;;;21.80;67.50;;;;;;5018414;28;20485;-68
2023/11/18 10:31:04;;;;;;;23.70;14.37;;;21.80;67.90;;;;;;5017533;28;20476;-65
2023/11/18 10:33:33;;;;;;;27.17;14.70;;;21.90;67.50;;;;;;5024558;28;20462;-74
2023/11/18 10:36:03;;;;;;;28.93;12.87;;;21.90;67.00;;;;;;5021257;28;20450;-66
2023/11/18 10:38:30;;;;;;;17.90;13.57;;;21.90;67.10;;;;;;5028802;28;20477;-66
2023/11/18 10:41:00;;;;;;;20.33;13.07;;;22.00;66.90;;;;;;5018531;28;20483;-73
2023/11/18 10:43:29;;;;;;;21.60;14.30;;;21.90;67.10;;;;;;5025060;28;20472;-73
2023/11/18 10:46:11;;;;;;;19.63;13.97;;;21.90;67.70;;;;;;5020515;28;20441;-73
2023/11/18 10:48:43;;;;;;;21.73;13.80;;;21.90;66.80;;;;;;5021358;28;20454;-65
2023/11/18 10:51:12;;;;;;;15.63;12.00;;;22.00;67.40;;;;;;5022901;28;20529;-67
2023/11/18 10:53:42;;;;;;;22.27;11.77;;;22.00;66.40;;;;;;5026034;28;20458;-68
2023/11/18 10:56:24;;;;;;;13.83;10.40;;;22.00;66.10;;;;;;5025987;28;20559;-69
2023/11/18 10:58:51;;;;;;;14.83;9.17;;;22.00;65.70;;;;;;5021155;28;20509;-70
2023/11/18 11:01:28;;;;;;;21.40;10.30;;;22.00;65.30;;;;;;5020304;28;20948;-69
2023/11/18 11:03:57;;;;;;;14.03;10.33;;;22.00;66.00;;;;;;5024997;28;20477;-69
2023/11/18 11:06:30;;;;;;;14.90;10.20;;;22.10;65.00;;;;;;5020469;28;20672;-69
2023/11/18 11:08:58;;;;;;;18.17;10.17;;;22.10;64.70;;;;;;5023143;28;20441;-68
2023/11/18 11:11:26;;;;;;;14.90;10.90;;;22.10;64.50;;;;;;5024285;28;20460;-71
2023/11/18 11:13:58;;;;;;;9.30;7.93;;;22.20;65.60;;;;;;5024603;28;20480;-70
2023/11/18 11:16:36;;;;;;;12.37;9.40;;;22.10;64.00;;;;;;5025261;28;20504;-70
2023/11/18 11:19:08;;;;;;;11.87;9.60;;;22.20;63.10;;;;;;5022142;28;20513;-70
2023/11/18 11:21:47;;;;;;;15.50;10.13;;;22.20;62.80;;;;;;5020948;28;20494;-67
2023/11/18 11:24:33;;;;;;;9.77;8.97;;;22.20;64.90;;;;;;5020680;28;20458;-67
2023/11/18 11:27:10;;;;;;;10.23;9.20;;;22.20;65.30;;;;;;5020287;28;20443;-67
2023/11/18 11:29:43;;;;;;;14.53;10.10;;;22.20;65.60;;;;;;5020638;28;20445;-68
2023/11/18 11:32:24;;;;;;;17.80;10.20;;;22.20;65.50;;;;;;5021749;28;20502;-68
2023/11/18 11:34:57;;;;;;;11.40;9.90;;;22.20;66.00;;;;;;5021226;28;20472;-68
2023/11/18 11:37:26;;;;;;;13.13;8.77;;;22.30;66.40;;;;;;5020119;28;20482;-66
2023/11/18 11:39:55;;;;;;;10.80;9.77;;;22.30;66.00;;;;;;5022805;28;20442;-66
2023/11/18 11:42:24;;;;;;;13.77;8.93;;;22.30;65.70;;;;;;5023349;28;20468;-68
2023/11/18 11:44:55;;;;;;;11.77;9.43;;;22.40;65.80;;;;;;5016386;28;20909;-65
2023/11/18 11:47:28;;;;;;;9.23;8.33;;;22.40;65.80;;;;;;5020237;28;20440;-65
2023/11/18 11:50:21;;;;;;;13.93;9.97;;;22.40;65.70;;;;;;5022771;28;20528;-66
2023/11/18 11:52:58;;;;;;;10.03;9.03;;;22.30;65.50;;;;;;5020339;28;20473;-66
2023/11/18 11:55:36;;;;;;;12.73;9.87;;;22.40;65.70;;;;;;5019963;28;20496;-66
2023/11/18 11:58:03;;;;;;;11.93;9.30;;;22.40;66.50;;;;;;5019050;28;20500;-65
2023/11/18 12:00:34;;;;;;;17.97;9.60;;;22.40;66.10;;;;;;5023287;28;20442;-64
2023/11/18 12:03:04;;;;;;;9.30;8.60;;;22.40;65.70;;;;;;5019692;28;20542;-64
2023/11/18 12:05:33;;;;;;;10.50;9.50;;;22.40;65.30;;;;;;5019981;28;20440;-67
2023/11/18 12:08:00;;;;;;;11.93;8.27;;;22.50;65.20;;;;;;5019591;28;20446;-66
2023/11/18 12:10:31;;;;;;;10.63;9.40;;;22.40;64.80;;;;;;5020878;28;20449;-69
2023/11/18 12:13:19;;;;;;;10.20;9.30;;;22.40;64.90;;;;;;5019741;28;20523;-67
2023/11/18 12:15:53;;;;;;;8.90;8.20;;;22.50;65.00;;;;;;5021100;28;20442;-66
2023/11/18 12:18:21;;;;;;;12.53;8.80;;;22.50;64.60;;;;;;5022807;28;20565;-65
2023/11/18 12:20:53;;;;;;;9.80;8.90;;;22.50;64.80;;;;;;5021532;28;20442;-66
2023/11/18 12:23:23;;;;;;;14.13;9.50;;;22.60;67.10;;;;;;5023027;28;20522;-67
2023/11/18 12:25:54;;;;;;;10.07;9.27;;;22.60;66.70;;;;;;5019978;28;20545;-68
2023/11/18 12:28:26;;;;;;;8.30;7.70;;;22.70;66.70;;;;;;5023430;28;20449;-67
2023/11/18 12:30:55;;;;;;;8.53;7.83;;;22.70;66.40;;;;;;5021139;28;20491;-68
2023/11/18 12:33:24;;;;;;;7.70;7.00;;;22.70;66.00;;;;;;5020171;28;20512;-67
2023/11/18 12:36:28;;;;;;;7.87;7.27;;;22.80;65.60;;;;;;5025112;28;20527;-68
2023/11/18 12:39:50;;;;;;;7.40;7.00;;;22.80;65.30;;;;;;5024334;28;21029;-66
2023/11/18 12:42:28;;;;;;;7.83;7.23;;;22.80;65.50;;;;;;4998759;28;20476;-66
2023/11/18 12:45:27;;;;;;;9.20;7.90;;;22.90;65.20;;;;;;5024196;28;20473;-66
2023/11/18 12:47:58;;;;;;;8.50;7.90;;;22.90;64.90;;;;;;5024637;28;20512;-66
2023/11/18 12:50:28;;;;;;;8.90;8.23;;;22.90;64.90;;;;;;5023514;28;20554;-67
2023/11/18 12:52:57;;;;;;;9.07;8.37;;;22.90;64.70;;;;;;5025385;28;20473;-68
2023/11/18 12:55:26;;;;;;;7.87;7.30;;;22.90;64.50;;;;;;5026227;28;20441;-66